createdAt,value
2018-09-22T00:01:32.623Z,73.12
2018-09-22T00:04:00.847Z,72.79
2018-09-22T00:06:29.024Z,72.95
2018-09-22T00:08:57.235Z,72.00
2018-09-22T00:11:25.473Z,71.97
2018-09-22T00:13:53.750Z,71.74
2018-09-22T00:16:21.904Z,72.55
2018-09-22T00:18:50.155Z,70.44
2018-09-22T00:21:18.362Z,69.75
2018-09-22T00:23:46.644Z,70.83
2018-09-22T00:26:14.843Z,69.72
2018-09-22T00:28:44.111Z,70.32
2018-09-22T00:31:12.394Z,69.94
2018-09-22T00:33:40.722Z,71.92
2018-09-22T00:36:08.960Z,69.83
2018-09-22T00:38:38.087Z,69.51
2018-09-22T00:41:06.656Z,69.99
2018-09-22T00:43:35.330Z,68.72
2018-09-22T00:46:03.696Z,69.71
2018-09-22T00:48:31.970Z,68.57
2018-09-22T00:51:00.145Z,68.72
2018-09-22T00:53:28.359Z,68.19
2018-09-22T00:55:56.682Z,69.53
2018-09-22T00:58:24.919Z,69.65
2018-09-22T01:00:53.172Z,70.99
2018-09-22T01:03:21.390Z,69.38
2018-09-22T01:05:49.568Z,68.73
2018-09-22T01:08:17.790Z,69.90
2018-09-22T01:10:45.930Z,69.50
2018-09-22T01:13:14.039Z,69.20
2018-09-22T01:15:42.290Z,69.39
2018-09-22T01:18:10.563Z,67.75
2018-09-22T01:20:38.694Z,67.21
2018-09-22T01:23:06.987Z,67.62
2018-09-22T01:25:35.131Z,68.39
2018-09-22T01:28:03.283Z,66.38
2018-09-22T01:30:31.506Z,67.48
2018-09-22T01:32:59.679Z,67.38
2018-09-22T01:35:27.886Z,67.16
2018-09-22T01:37:56.077Z,67.14
2018-09-22T01:40:24.267Z,67.40
2018-09-22T01:42:52.478Z,68.27
2018-09-22T01:45:20.812Z,67.86
2018-09-22T01:47:49.038Z,67.16
2018-09-22T01:50:24.071Z,66.85
2018-09-22T01:52:52.295Z,66.63
2018-09-22T01:55:20.532Z,67.08
2018-09-22T01:57:48.743Z,66.13
2018-09-22T02:00:17.116Z,67.72
2018-09-22T02:02:45.304Z,66.19
2018-09-22T02:05:13.498Z,66.69
2018-09-22T02:07:41.771Z,67.43
2018-09-22T02:10:09.918Z,68.08
2018-09-22T02:12:38.075Z,67.57
2018-09-22T02:15:06.274Z,68.61
2018-09-22T02:17:34.511Z,67.89
2018-09-22T02:20:02.868Z,68.94
2018-09-22T02:22:31.342Z,68.59
2018-09-22T02:24:59.475Z,67.42
2018-09-22T02:27:27.604Z,68.02
2018-09-22T02:29:55.771Z,66.80
2018-09-22T02:32:23.967Z,68.43
2018-09-22T02:34:52.252Z,67.21
2018-09-22T02:37:20.943Z,67.90
2018-09-22T02:39:49.132Z,67.70
2018-09-22T02:42:17.905Z,67.14
2018-09-22T02:44:46.088Z,67.95
2018-09-22T02:47:14.235Z,68.70
2018-09-22T02:49:42.371Z,69.96
2018-09-22T02:52:10.553Z,69.73
2018-09-22T02:54:38.727Z,69.83
2018-09-22T02:57:06.863Z,69.20
2018-09-22T02:59:35.059Z,70.11
2018-09-22T03:02:03.295Z,69.72
2018-09-22T03:04:31.490Z,69.13
2018-09-22T03:06:59.716Z,68.89
2018-09-22T03:09:27.829Z,67.79
2018-09-22T03:11:55.964Z,68.73
2018-09-22T03:14:24.246Z,68.81
2018-09-22T03:16:52.381Z,68.20
2018-09-22T03:19:20.596Z,68.36
2018-09-22T03:21:49.144Z,69.64
2018-09-22T03:24:17.305Z,69.15
2018-09-22T03:26:45.535Z,68.05
2018-09-22T03:29:13.724Z,69.02
2018-09-22T03:31:41.814Z,68.30
2018-09-22T03:34:10.043Z,67.76
2018-09-22T03:36:38.227Z,69.79
2018-09-22T03:39:08.332Z,68.55
2018-09-22T03:41:36.487Z,69.15
2018-09-22T03:44:04.715Z,69.57
2018-09-22T03:46:32.947Z,71.42
2018-09-22T03:49:01.175Z,68.62
2018-09-22T03:51:29.569Z,69.31
2018-09-22T03:53:57.727Z,69.19
2018-09-22T03:56:25.923Z,70.70
2018-09-22T03:58:54.213Z,68.32
2018-09-22T04:01:22.387Z,70.71
2018-09-22T04:03:50.479Z,69.57
2018-09-22T04:06:18.671Z,70.88
2018-09-22T04:08:46.800Z,70.55
2018-09-22T04:11:15.049Z,71.26
2018-09-22T04:13:43.223Z,70.19
2018-09-22T04:16:11.548Z,70.08
2018-09-22T04:18:39.770Z,69.92
2018-09-22T04:21:08.028Z,71.95
2018-09-22T04:23:36.254Z,71.83
2018-09-22T04:26:04.509Z,70.73
2018-09-22T04:28:32.712Z,71.47
2018-09-22T04:31:00.786Z,72.30
2018-09-22T04:33:29.086Z,73.03
2018-09-22T04:35:57.124Z,72.53
2018-09-22T04:38:25.336Z,72.85
2018-09-22T04:40:53.573Z,72.24
2018-09-22T04:43:21.988Z,72.89
2018-09-22T04:45:50.143Z,73.33
2018-09-22T04:48:18.358Z,72.81
2018-09-22T04:50:46.819Z,71.87
2018-09-22T04:53:14.993Z,73.26
2018-09-22T04:55:43.171Z,74.75
2018-09-22T04:58:11.481Z,72.40
2018-09-22T05:00:39.956Z,73.00
2018-09-22T05:03:08.155Z,72.76
2018-09-22T05:05:36.319Z,72.95
2018-09-22T05:08:04.526Z,73.63
2018-09-22T05:10:32.698Z,73.20
2018-09-22T05:13:00.996Z,72.99
2018-09-22T05:15:29.245Z,73.72
2018-09-22T05:17:57.500Z,73.72
2018-09-22T05:20:25.615Z,73.32
2018-09-22T05:22:53.848Z,73.46
2018-09-22T05:25:22.067Z,73.62
2018-09-22T05:27:50.243Z,74.10
2018-09-22T05:30:18.458Z,75.84
2018-09-22T05:32:46.650Z,74.77
2018-09-22T05:35:14.767Z,75.42
2018-09-22T05:37:42.991Z,75.65
2018-09-22T05:40:11.228Z,73.56
2018-09-22T05:42:39.344Z,75.77
2018-09-22T05:45:07.734Z,71.75
2018-09-22T05:47:36.428Z,72.57
2018-09-22T05:50:04.747Z,73.58
2018-09-22T05:52:32.953Z,72.37
2018-09-22T05:55:01.879Z,70.84
2018-09-22T05:57:30.183Z,71.52
2018-09-22T05:59:58.393Z,70.75
2018-09-22T06:02:28.951Z,72.08
2018-09-22T06:04:57.394Z,70.86
2018-09-22T06:07:25.548Z,71.71
2018-09-22T06:09:54.240Z,72.16
2018-09-22T06:12:22.415Z,71.42
2018-09-22T06:14:50.612Z,69.98
2018-09-22T06:17:18.760Z,70.98
2018-09-22T06:19:46.985Z,72.10
2018-09-22T06:22:15.121Z,70.66
2018-09-22T06:24:43.330Z,71.05
2018-09-22T06:27:11.561Z,71.08
2018-09-22T06:29:39.755Z,70.66
2018-09-22T06:32:07.936Z,69.62
2018-09-22T06:34:36.246Z,68.79
2018-09-22T06:37:04.433Z,69.89
2018-09-22T06:39:32.683Z,69.62
2018-09-22T06:42:00.980Z,70.44
2018-09-22T06:44:29.189Z,69.72
2018-09-22T06:46:57.323Z,69.37
2018-09-22T06:49:25.461Z,69.17
2018-09-22T06:51:53.683Z,67.41
2018-09-22T06:54:21.851Z,67.80
2018-09-22T06:56:50.172Z,67.79
2018-09-22T06:59:18.308Z,67.48
2018-09-22T07:01:46.435Z,67.22
2018-09-22T07:04:14.611Z,66.59
2018-09-22T07:06:42.850Z,65.84
2018-09-22T07:09:11.024Z,64.84
2018-09-22T07:11:39.211Z,62.68
2018-09-22T07:14:07.552Z,64.10
2018-09-22T07:16:35.735Z,62.22
2018-09-22T07:19:03.973Z,61.90
2018-09-22T07:21:37.472Z,60.43
2018-09-22T07:24:05.693Z,60.34
2018-09-22T07:26:33.867Z,60.98
2018-09-22T07:29:01.948Z,59.43
2018-09-22T07:31:32.903Z,58.98
2018-09-22T07:34:01.177Z,58.40
2018-09-22T07:36:29.459Z,60.00
2018-09-22T07:38:58.947Z,59.79
2018-09-22T07:41:27.139Z,58.99
2018-09-22T07:43:55.383Z,59.14
2018-09-22T07:46:23.695Z,58.35
2018-09-22T07:48:51.851Z,57.43
2018-09-22T07:51:19.955Z,58.78
2018-09-22T07:53:48.156Z,57.63
2018-09-22T07:56:16.379Z,56.71
2018-09-22T07:58:44.608Z,56.99
2018-09-22T08:01:12.687Z,57.40
2018-09-22T08:03:40.852Z,57.02
2018-09-22T08:06:09.483Z,56.48
2018-09-22T08:08:37.725Z,56.82
2018-09-22T08:11:05.880Z,57.69
2018-09-22T08:13:33.998Z,57.72
2018-09-22T08:16:02.184Z,56.42
2018-09-22T08:18:30.334Z,56.84
2018-09-22T08:20:58.516Z,56.41
2018-09-22T08:23:26.615Z,55.24
2018-09-22T08:25:54.940Z,55.41
2018-09-22T08:28:23.419Z,56.21
2018-09-22T08:30:51.576Z,55.47
2018-09-22T08:33:19.791Z,55.84
2018-09-22T08:35:48.005Z,53.97
2018-09-22T08:38:16.298Z,54.80
2018-09-22T08:40:44.491Z,54.19
2018-09-22T08:43:12.664Z,54.91
2018-09-22T08:45:40.863Z,53.76
2018-09-22T08:48:09.036Z,53.27
2018-09-22T08:50:37.208Z,54.44
2018-09-22T08:53:05.440Z,54.09
2018-09-22T08:55:33.647Z,53.67
2018-09-22T08:58:01.917Z,54.01
2018-09-22T09:00:30.087Z,54.26
2018-09-22T09:02:58.265Z,52.39
2018-09-22T09:05:26.385Z,53.31
2018-09-22T09:07:54.619Z,51.68
2018-09-22T09:10:22.878Z,53.01
2018-09-22T09:12:51.277Z,51.43
2018-09-22T09:15:19.503Z,50.84
2018-09-22T09:17:47.651Z,51.85
2018-09-22T09:20:15.827Z,51.18
2018-09-22T09:22:43.960Z,50.97
2018-09-22T09:25:12.223Z,50.67
2018-09-22T09:27:40.507Z,50.94
2018-09-22T09:30:08.641Z,49.63
2018-09-22T09:32:36.788Z,49.91
2018-09-22T09:35:04.940Z,50.06
2018-09-22T09:37:33.731Z,49.71
2018-09-22T09:40:01.887Z,49.80
2018-09-22T09:42:30.268Z,49.52
2018-09-22T09:44:58.490Z,49.68
2018-09-22T09:47:26.622Z,50.08
2018-09-22T09:49:54.843Z,48.22
2018-09-22T09:52:23.086Z,48.76
2018-09-22T09:54:51.368Z,48.23
2018-09-22T09:57:19.499Z,47.99
2018-09-22T09:59:47.747Z,48.47
2018-09-22T10:02:16.064Z,49.02
2018-09-22T10:04:44.323Z,48.06
2018-09-22T10:07:12.524Z,48.59
2018-09-22T10:09:40.793Z,47.09
2018-09-22T10:12:09.091Z,46.57
2018-09-22T10:14:37.381Z,47.01
2018-09-22T10:17:05.710Z,45.61
2018-09-22T10:19:33.999Z,45.76
2018-09-22T10:22:02.215Z,47.73
2018-09-22T10:24:30.443Z,45.90
2018-09-22T10:26:58.614Z,45.92
2018-09-22T10:29:26.811Z,45.58
2018-09-22T10:31:54.931Z,45.56
2018-09-22T10:34:23.184Z,45.11
2018-09-22T10:36:51.577Z,45.86
2018-09-22T10:39:19.879Z,44.48
2018-09-22T10:41:48.212Z,44.93
2018-09-22T10:44:16.675Z,46.38
2018-09-22T10:46:44.891Z,44.46
2018-09-22T10:49:13.126Z,45.24
2018-09-22T10:51:41.543Z,42.34
2018-09-22T10:54:10.208Z,42.81
2018-09-22T10:56:38.475Z,44.23
2018-09-22T10:59:07.631Z,42.92
2018-09-22T11:01:35.984Z,42.99
2018-09-22T11:04:04.335Z,43.13
2018-09-22T11:06:32.520Z,41.94
2018-09-22T11:09:00.707Z,42.90
2018-09-22T11:11:28.819Z,42.13
2018-09-22T11:13:56.960Z,42.48
2018-09-22T11:16:25.188Z,42.24
2018-09-22T11:18:53.438Z,41.24
2018-09-22T11:21:21.634Z,40.89
2018-09-22T11:23:49.838Z,41.76
2018-09-22T11:26:18.128Z,42.08
2018-09-22T11:28:46.255Z,42.03
2018-09-22T11:31:14.572Z,41.51
2018-09-22T11:33:42.820Z,40.14
2018-09-22T11:36:11.119Z,40.14
2018-09-22T11:38:40.214Z,39.11
2018-09-22T11:41:08.416Z,39.01
2018-09-22T11:43:36.671Z,39.41
2018-09-22T11:46:04.915Z,39.51
2018-09-22T11:48:33.013Z,40.31
2018-09-22T11:51:01.291Z,40.97
2018-09-22T11:53:29.431Z,39.77
2018-09-22T11:55:57.550Z,40.55
2018-09-22T11:58:25.762Z,41.52
2018-09-22T12:00:53.895Z,39.50
2018-09-22T12:03:22.119Z,41.12
2018-09-22T12:05:50.489Z,39.42
2018-09-22T12:08:18.875Z,39.72
2018-09-22T12:10:47.155Z,39.67
2018-09-22T12:13:15.353Z,40.05
2018-09-22T12:15:43.626Z,39.51
2018-09-22T12:18:11.804Z,39.53
2018-09-22T12:20:39.987Z,39.41
2018-09-22T12:23:08.191Z,40.60
2018-09-22T12:25:36.362Z,40.62
2018-09-22T12:28:04.546Z,39.30
2018-09-22T12:30:32.747Z,39.70
2018-09-22T12:33:01.035Z,39.67
2018-09-22T12:35:29.327Z,38.97
2018-09-22T12:37:57.498Z,39.23
2018-09-22T12:40:25.683Z,38.64
2018-09-22T12:42:53.901Z,39.70
2018-09-22T12:45:22.084Z,38.04
2018-09-22T12:47:50.255Z,37.22
2018-09-22T12:50:18.515Z,37.50
2018-09-22T12:52:46.744Z,37.19
2018-09-22T12:55:15.059Z,37.32
2018-09-22T12:57:43.367Z,36.33
2018-09-22T13:00:12.602Z,37.88
2018-09-22T13:02:40.975Z,38.85
2018-09-22T13:05:09.245Z,38.34
2018-09-22T13:07:37.517Z,37.89
2018-09-22T13:10:05.671Z,38.66
2018-09-22T13:12:33.816Z,38.85
2018-09-22T13:15:02.012Z,38.19
2018-09-22T13:17:30.374Z,37.40
2018-09-22T13:19:58.596Z,37.05
2018-09-22T13:22:26.919Z,36.89
2018-09-22T13:24:55.199Z,36.05
2018-09-22T13:27:23.415Z,36.58
2018-09-22T13:29:51.672Z,35.76
2018-09-22T13:32:19.847Z,35.81
2018-09-22T13:34:48.128Z,35.89
2018-09-22T13:37:16.390Z,36.75
2018-09-22T13:39:44.504Z,36.00
2018-09-22T13:42:13.818Z,36.47
2018-09-22T13:44:41.963Z,35.48
2018-09-22T13:47:10.139Z,35.50
2018-09-22T13:49:38.302Z,37.20
2018-09-22T13:52:06.499Z,36.31
2018-09-22T13:54:34.733Z,36.33
2018-09-22T13:57:03.069Z,35.10
2018-09-22T13:59:31.272Z,35.41
2018-09-22T14:01:59.480Z,35.98
2018-09-22T14:04:34.455Z,36.17
2018-09-22T14:07:02.668Z,36.55
2018-09-22T14:09:30.851Z,37.60
2018-09-22T14:11:58.977Z,37.68
2018-09-22T14:14:27.191Z,37.24
2018-09-22T14:16:55.455Z,37.27
2018-09-22T14:19:24.435Z,37.99
2018-09-22T14:21:52.619Z,38.88
2018-09-22T14:24:20.832Z,38.75
2018-09-22T14:26:48.926Z,37.52
2018-09-22T14:29:17.203Z,38.94
2018-09-22T14:31:45.392Z,38.11
2018-09-22T14:34:13.732Z,38.48
2018-09-22T14:36:42.023Z,37.84
2018-09-22T14:39:10.252Z,38.38
2018-09-22T14:41:38.435Z,37.41
2018-09-22T14:44:06.671Z,37.76
2018-09-22T14:46:34.895Z,37.89
2018-09-22T14:49:03.115Z,38.14
2018-09-22T14:51:31.324Z,38.76
2018-09-22T14:53:59.582Z,38.98
2018-09-22T14:56:27.850Z,39.18
2018-09-22T14:58:56.054Z,38.98
2018-09-22T15:01:24.270Z,38.78
2018-09-22T15:03:52.425Z,39.15
2018-09-22T15:06:20.667Z,39.75
2018-09-22T15:08:48.835Z,40.20
2018-09-22T15:11:17.048Z,40.49
2018-09-22T15:13:45.198Z,39.98
2018-09-22T15:16:13.387Z,40.13
2018-09-22T15:18:41.567Z,40.10
2018-09-22T15:21:09.795Z,39.97
2018-09-22T15:23:37.979Z,39.74
2018-09-22T15:26:06.235Z,40.38
2018-09-22T15:28:34.466Z,40.32
2018-09-22T15:31:02.676Z,40.53
2018-09-22T15:33:30.850Z,40.47
2018-09-22T15:35:59.026Z,40.97
2018-09-22T15:38:27.319Z,41.39
2018-09-22T15:40:55.462Z,40.77
2018-09-22T15:43:23.676Z,40.53
2018-09-22T15:45:51.903Z,40.99
2018-09-22T15:48:20.260Z,41.96
2018-09-22T15:50:48.379Z,41.07
2018-09-22T15:53:17.652Z,41.60
2018-09-22T15:55:45.883Z,42.10
2018-09-22T15:58:14.149Z,42.55
2018-09-22T16:00:42.499Z,42.14
2018-09-22T16:03:10.726Z,41.72
2018-09-22T16:05:38.865Z,41.63
2018-09-22T16:08:07.118Z,42.01
2018-09-22T16:10:35.314Z,41.99
2018-09-22T16:13:03.463Z,42.29
2018-09-22T16:15:31.763Z,43.16
2018-09-22T16:17:59.917Z,42.62
2018-09-22T16:20:28.070Z,43.66
2018-09-22T16:22:56.224Z,42.13
2018-09-22T16:25:24.438Z,44.12
2018-09-22T16:27:52.599Z,44.52
2018-09-22T16:30:20.823Z,46.80
2018-09-22T16:32:49.051Z,46.89
2018-09-22T16:35:17.318Z,48.67
2018-09-22T16:37:46.087Z,49.19
2018-09-22T16:40:14.402Z,49.29
2018-09-22T16:42:42.599Z,49.16
2018-09-22T16:45:10.832Z,48.84
2018-09-22T16:47:39.091Z,50.22
2018-09-22T16:50:07.446Z,50.22
2018-09-22T16:52:35.649Z,50.09
2018-09-22T16:55:03.871Z,49.75
2018-09-22T16:57:31.971Z,50.02
2018-09-22T17:00:00.193Z,49.27
2018-09-22T17:02:28.369Z,49.79
2018-09-22T17:04:56.483Z,48.84
2018-09-22T17:07:24.621Z,49.21
2018-09-22T17:09:52.767Z,49.23
2018-09-22T17:12:20.975Z,48.70
2018-09-22T17:14:49.891Z,49.15
2018-09-22T17:17:18.180Z,49.02
2018-09-22T17:19:46.369Z,48.43
2018-09-22T17:22:14.563Z,48.74
2018-09-22T17:24:42.854Z,48.33
2018-09-22T17:27:11.118Z,48.83
2018-09-22T17:29:39.732Z,49.57
2018-09-22T17:32:07.971Z,49.80
2018-09-22T17:34:36.362Z,49.44
2018-09-22T17:37:04.534Z,49.71
2018-09-22T17:39:33.384Z,50.27
2018-09-22T17:42:01.527Z,49.61
2018-09-22T17:44:30.331Z,50.69
2018-09-22T17:46:58.447Z,49.52
2018-09-22T17:49:26.787Z,49.53
2018-09-22T17:51:54.927Z,48.98
2018-09-22T17:54:23.164Z,49.02
2018-09-22T17:56:51.344Z,50.43
2018-09-22T17:59:19.567Z,51.24
2018-09-22T18:01:47.753Z,51.52
2018-09-22T18:04:16.404Z,51.18
2018-09-22T18:06:44.658Z,50.40
2018-09-22T18:09:12.862Z,50.20
2018-09-22T18:11:41.447Z,51.58
2018-09-22T18:14:09.771Z,53.45
2018-09-22T18:16:38.083Z,55.47
2018-09-22T18:19:06.516Z,54.35
2018-09-22T18:21:34.752Z,57.22
2018-09-22T18:24:03.075Z,57.85
2018-09-22T18:26:31.842Z,57.51
2018-09-22T18:29:00.104Z,57.94
2018-09-22T18:31:28.313Z,56.24
2018-09-22T18:33:56.577Z,54.96
2018-09-22T18:36:24.783Z,55.99
2018-09-22T18:38:52.982Z,56.80
2018-09-22T18:41:21.121Z,53.53
2018-09-22T18:43:49.305Z,54.76
2018-09-22T18:46:17.472Z,55.29
2018-09-22T18:48:45.659Z,53.39
2018-09-22T18:51:13.931Z,54.78
2018-09-22T18:53:42.131Z,56.19
2018-09-22T18:56:10.331Z,57.10
2018-09-22T18:58:38.477Z,55.98
2018-09-22T19:01:06.926Z,56.75
2018-09-22T19:03:35.080Z,55.84
2018-09-22T19:06:03.373Z,55.90
2018-09-22T19:08:31.440Z,56.80
2018-09-22T19:10:59.594Z,58.19
2018-09-22T19:13:36.715Z,59.23
2018-09-22T19:16:08.445Z,57.70
2018-09-22T19:18:47.226Z,58.89
2018-09-22T19:21:19.311Z,57.40
2018-09-22T19:23:53.299Z,59.31
2018-09-22T19:26:25.668Z,56.67
2018-09-22T19:28:58.259Z,57.01
2018-09-22T19:31:34.476Z,56.60
2018-09-22T19:34:06.724Z,57.57
2018-09-22T19:36:38.084Z,58.44
2018-09-22T19:41:16.268Z,58.87
2018-09-22T19:43:49.687Z,59.87
2018-09-22T19:46:20.127Z,60.39
2018-09-22T19:48:52.671Z,57.99
2018-09-22T19:51:22.855Z,61.95
2018-09-22T19:53:51.543Z,59.46
2018-09-22T19:56:19.689Z,59.09
2018-09-22T19:58:48.535Z,57.23
2018-09-22T20:01:16.655Z,56.90
2018-09-22T20:03:44.874Z,57.82
2018-09-22T20:06:13.108Z,58.15
2018-09-22T20:08:41.299Z,58.31
2018-09-22T20:11:09.575Z,58.62
2018-09-22T20:13:37.731Z,58.87
2018-09-22T20:16:06.044Z,58.69
2018-09-22T20:18:34.242Z,58.79
2018-09-22T20:21:02.419Z,59.54
2018-09-22T20:23:30.614Z,60.27
2018-09-22T20:25:58.825Z,59.62
2018-09-22T20:28:26.977Z,59.24
2018-09-22T20:30:55.175Z,59.47
2018-09-22T20:33:23.424Z,60.92
2018-09-22T20:35:51.652Z,61.23
2018-09-22T20:38:19.754Z,61.06
2018-09-22T20:40:47.868Z,58.57
2018-09-22T20:43:16.236Z,58.28
2018-09-22T20:45:44.483Z,60.06
2018-09-22T20:48:12.739Z,58.96
2018-09-22T20:50:40.927Z,58.25
2018-09-22T20:53:09.122Z,59.31
2018-09-22T20:55:37.236Z,59.05
2018-09-22T20:58:05.411Z,59.10
2018-09-22T21:00:33.603Z,59.69
2018-09-22T21:03:01.742Z,60.79
2018-09-22T21:05:29.918Z,63.18
2018-09-22T21:07:58.414Z,64.58
2018-09-22T21:10:26.662Z,63.22
2018-09-22T21:12:54.903Z,63.12
2018-09-22T21:15:23.095Z,61.87
2018-09-22T21:17:51.301Z,61.25
2018-09-22T21:20:19.985Z,62.07
2018-09-22T21:22:48.107Z,62.56
2018-09-22T21:25:16.437Z,62.07
2018-09-22T21:27:44.685Z,63.07
2018-09-22T21:30:12.850Z,62.88
2018-09-22T21:32:41.098Z,63.87
2018-09-22T21:35:09.681Z,68.33
2018-09-22T21:37:37.875Z,66.98
2018-09-22T21:40:06.342Z,64.97
2018-09-22T21:42:34.515Z,65.48
2018-09-22T21:45:05.339Z,67.69
2018-09-22T21:47:33.796Z,66.65
2018-09-22T21:50:01.994Z,66.91
2018-09-22T21:52:30.267Z,65.30
2018-09-22T21:54:58.498Z,66.71
2018-09-22T21:57:26.648Z,65.37
2018-09-22T22:02:40.135Z,66.01
2018-09-22T22:05:08.451Z,66.36
2018-09-22T22:07:36.699Z,66.73
2018-09-22T22:10:04.959Z,68.22
2018-09-22T22:12:33.281Z,67.10
2018-09-22T22:15:01.524Z,66.76
2018-09-22T22:17:29.791Z,67.09
2018-09-22T22:19:58.042Z,65.84
2018-09-22T22:22:26.247Z,65.87
2018-09-22T22:24:54.496Z,65.36
2018-09-22T22:27:22.819Z,64.34
2018-09-22T22:29:51.159Z,63.08
2018-09-22T22:32:19.399Z,62.91
2018-09-22T22:34:47.578Z,63.45
2018-09-22T22:37:15.782Z,63.84
2018-09-22T22:39:44.515Z,64.60
2018-09-22T22:42:12.764Z,66.59
2018-09-22T22:44:41.002Z,67.75
2018-09-22T22:47:09.175Z,69.06
2018-09-22T22:49:37.498Z,68.70
2018-09-22T22:52:05.666Z,69.44
2018-09-22T22:54:33.908Z,69.95
2018-09-22T22:57:02.323Z,70.24
2018-09-22T22:59:30.624Z,70.05
2018-09-22T23:01:58.823Z,70.14
2018-09-22T23:04:27.056Z,70.18
2018-09-22T23:06:55.230Z,70.39
2018-09-22T23:09:23.447Z,70.40
2018-09-22T23:11:51.695Z,71.09
2018-09-22T23:14:19.889Z,69.49
2018-09-22T23:16:48.729Z,69.20
2018-09-22T23:19:16.919Z,68.68
2018-09-22T23:21:45.611Z,69.07
2018-09-22T23:24:13.851Z,68.72
2018-09-22T23:26:42.118Z,68.53
2018-09-22T23:29:10.335Z,68.48
2018-09-22T23:31:38.508Z,66.30
2018-09-22T23:34:06.719Z,66.81
2018-09-22T23:36:35.019Z,66.35
2018-09-22T23:39:03.267Z,66.61
2018-09-22T23:41:31.443Z,66.27
2018-09-22T23:43:59.608Z,66.17
2018-09-22T23:46:27.817Z,65.41
2018-09-22T23:48:56.110Z,64.87
2018-09-22T23:51:24.410Z,66.15
2018-09-22T23:53:52.622Z,65.71
2018-09-22T23:56:20.924Z,66.47
2018-09-22T23:58:49.175Z,67.28
